Time;durP1;ratioP1;P1;durP2;ratioP2;P2;SDS_P1;SDS_P2;PMS_P1;PMS_P2;Temp;Humidity;BMP_temperature;BMP_pressure;BME280_temperature;BME280_humidity;BME280_pressure;Samples;Min_cycle;Max_cycle;Signal;HPM_P1;HPM_P2
2022/10/24 00:02:18;;;;;;;1.33;1.20;;;;;;;;;;5039179;28;20076;-55
2022/10/24 00:04:44;;;;;;;1.50;1.40;;;;;;;;;;5037988;28;20053;-55
2022/10/24 00:07:10;;;;;;;3.22;1.27;;;;;;;;;;5039521;28;20057;-55
2022/10/24 00:09:36;;;;;;;3.33;1.10;;;;;;;;;;5039167;28;20341;-55
2022/10/24 00:12:03;;;;;;;1.50;1.33;;;;;;;;;;5036140;28;20454;-55
2022/10/24 00:14:29;;;;;;;4.10;1.63;;;;;;;;;;5038810;28;20037;-55
2022/10/24 00:16:55;;;;;;;2.22;1.10;;;;;;;;;;5035812;28;20045;-55
2022/10/24 00:19:22;;;;;;;2.58;1.33;;;;;;;;;;5037037;28;20056;-55
2022/10/24 00:21:48;;;;;;;3.33;1.42;;;;;;;;;;5036981;28;20495;-55
2022/10/24 00:24:14;;;;;;;2.42;1.20;;;;;;;;;;5035442;28;20040;-55
2022/10/24 00:26:40;;;;;;;1.65;1.05;;;;;;;;;;5034323;28;20045;-55
2022/10/24 00:29:06;;;;;;;1.10;1.00;;;;;;;;;;5036908;28;20404;-55
2022/10/24 00:31:32;;;;;;;1.10;1.05;;;;;;;;;;5041805;28;20103;-55
2022/10/24 00:33:58;;;;;;;2.63;1.05;;;;;;;;;;5039141;28;20147;-55
2022/10/24 00:36:25;;;;;;;8.30;1.30;;;;;;;;;;5036977;28;20412;-55
2022/10/24 00:38:51;;;;;;;1.10;0.80;;;;;;;;;;5039291;28;20068;-55
2022/10/24 00:41:19;;;;;;;2.70;1.15;;;;;;;;;;5038499;28;20052;-56
2022/10/24 00:43:45;;;;;;;1.90;1.08;;;;;;;;;;5034945;28;20071;-56
2022/10/24 00:46:12;;;;;;;1.13;0.90;;;;;;;;;;5031932;28;20127;-55
2022/10/24 00:48:40;;;;;;;2.00;1.00;;;;;;;;;;5038806;28;20508;-56
2022/10/24 00:51:20;;;;;;;1.83;0.90;;;;;;;;;;5037440;28;20051;-55
2022/10/24 00:53:49;;;;;;;2.53;1.08;;;;;;;;;;5039648;28;20049;-55
2022/10/24 00:56:16;;;;;;;2.70;1.23;;;;;;;;;;5038965;28;20435;-56
2022/10/24 00:58:43;;;;;;;1.13;1.00;;;;;;;;;;5035822;28;20052;-56
2022/10/24 01:01:09;;;;;;;4.03;1.23;;;;;;;;;;5036077;28;20038;-56
2022/10/24 01:03:35;;;;;;;1.50;0.85;;;;;;;;;;5035999;28;20183;-56
2022/10/24 01:06:16;;;;;;;1.17;0.88;;;;;;;;;;5032977;28;20053;-56
2022/10/24 01:08:45;;;;;;;1.40;0.60;;;;;;;;;;5037694;28;20140;-55
2022/10/24 01:11:20;;;;;;;0.75;0.60;;;;;;;;;;5038364;28;20044;-56
2022/10/24 01:14:05;;;;;;;2.33;0.75;;;;;;;;;;5039388;28;20087;-56
2022/10/24 01:16:43;;;;;;;0.70;0.70;;;;;;;;;;5033853;28;20498;-56
2022/10/24 01:19:26;;;;;;;0.90;0.70;;;;;;;;;;5039597;28;20588;-56
2022/10/24 01:21:54;;;;;;;1.85;0.85;;;;;;;;;;5035686;28;20041;-55
2022/10/24 01:24:37;;;;;;;1.77;1.00;;;;;;;;;;5036666;28;20408;-55
2022/10/24 01:27:03;;;;;;;0.73;0.65;;;;;;;;;;5038261;28;20048;-55
2022/10/24 01:29:32;;;;;;;0.98;0.68;;;;;;;;;;5036958;28;20041;-56
2022/10/24 01:32:02;;;;;;;3.03;1.05;;;;;;;;;;5035921;28;20044;-55
2022/10/24 01:34:48;;;;;;;3.22;0.60;;;;;;;;;;5034923;28;20112;-56
2022/10/24 01:37:21;;;;;;;1.20;0.80;;;;;;;;;;5036614;28;20041;-56
2022/10/24 01:39:49;;;;;;;0.93;0.70;;;;;;;;;;5035518;28;20116;-56
2022/10/24 01:42:17;;;;;;;4.28;1.02;;;;;;;;;;5038732;28;20040;-56
2022/10/24 01:44:45;;;;;;;2.55;0.80;;;;;;;;;;5036688;28;20057;-56
2022/10/24 01:47:13;;;;;;;1.77;0.82;;;;;;;;;;5038255;28;20037;-55
2022/10/24 01:49:41;;;;;;;2.42;1.33;;;;;;;;;;5033953;28;20037;-55
2022/10/24 01:52:09;;;;;;;1.45;0.70;;;;;;;;;;5036734;28;20033;-56
2022/10/24 01:54:36;;;;;;;1.90;0.90;;;;;;;;;;5035752;28;20106;-56
2022/10/24 01:57:04;;;;;;;2.08;1.00;;;;;;;;;;5034428;28;20041;-56
2022/10/24 01:59:30;;;;;;;2.97;0.95;;;;;;;;;;5033710;28;20520;-56
2022/10/24 02:02:15;;;;;;;2.17;1.13;;;;;;;;;;5036491;28;20065;-56
2022/10/24 02:04:44;;;;;;;2.17;0.98;;;;;;;;;;5036930;28;20036;-56
2022/10/24 02:07:11;;;;;;;1.10;0.82;;;;;;;;;;5039503;28;20061;-56
2022/10/24 02:09:38;;;;;;;3.03;0.73;;;;;;;;;;5036452;28;20393;-56
2022/10/24 02:12:06;;;;;;;2.03;0.77;;;;;;;;;;5037793;28;20041;-56
2022/10/24 02:14:47;;;;;;;2.17;0.93;;;;;;;;;;5037546;28;20056;-56
2022/10/24 02:17:13;;;;;;;1.67;0.88;;;;;;;;;;5036943;28;20059;-56
2022/10/24 02:19:39;;;;;;;2.13;1.15;;;;;;;;;;5039178;28;20052;-56
2022/10/24 02:22:19;;;;;;;1.35;0.95;;;;;;;;;;5038935;28;20570;-56
2022/10/24 02:24:49;;;;;;;1.45;1.02;;;;;;;;;;5036747;28;20049;-56
2022/10/24 02:27:18;;;;;;;1.90;1.08;;;;;;;;;;5033116;28;20045;-56
2022/10/24 02:29:50;;;;;;;3.53;1.52;;;;;;;;;;5037869;28;20120;-55
2022/10/24 02:32:19;;;;;;;2.28;1.27;;;;;;;;;;5038599;28;20377;-56
2022/10/24 02:34:46;;;;;;;1.20;1.10;;;;;;;;;;5033784;28;20084;-56
2022/10/24 02:37:12;;;;;;;3.70;1.38;;;;;;;;;;5034980;28;20072;-56
2022/10/24 02:39:39;;;;;;;1.45;1.15;;;;;;;;;;5035838;28;20082;-56
2022/10/24 02:42:06;;;;;;;2.53;1.38;;;;;;;;;;5034236;28;20075;-56
2022/10/24 02:44:33;;;;;;;2.33;1.50;;;;;;;;;;5031408;28;20333;-56
2022/10/24 02:47:01;;;;;;;4.90;1.75;;;;;;;;;;5036477;28;20052;-56
2022/10/24 02:49:27;;;;;;;2.92;1.55;;;;;;;;;;5036864;28;20045;-56
2022/10/24 02:51:53;;;;;;;1.83;1.50;;;;;;;;;;5037983;28;20041;-56
2022/10/24 02:54:19;;;;;;;1.75;0.85;;;;;;;;;;5038288;28;20045;-56
2022/10/24 02:56:50;;;;;;;3.72;1.23;;;;;;;;;;5030000;28;20053;-56
2022/10/24 02:59:16;;;;;;;1.40;1.30;;;;;;;;;;5033198;28;20045;-56
2022/10/24 03:01:42;;;;;;;1.83;1.40;;;;;;;;;;5035261;28;20044;-56
2022/10/24 03:04:08;;;;;;;1.42;0.90;;;;;;;;;;5036770;28;20044;-56
2022/10/24 03:06:34;;;;;;;5.05;1.65;;;;;;;;;;5037478;28;20052;-56
2022/10/24 03:09:00;;;;;;;4.25;1.40;;;;;;;;;;5034831;28;20191;-56
2022/10/24 03:11:26;;;;;;;4.45;1.52;;;;;;;;;;5032994;28;20120;-55
2022/10/24 03:13:52;;;;;;;1.65;1.05;;;;;;;;;;5034817;28;20455;-56
2022/10/24 03:16:18;;;;;;;2.88;1.60;;;;;;;;;;5040744;28;20044;-56
2022/10/24 03:18:44;;;;;;;1.50;1.10;;;;;;;;;;5037952;28;20153;-56
2022/10/24 03:21:10;;;;;;;3.58;1.23;;;;;;;;;;5038856;28;20040;-56
2022/10/24 03:23:36;;;;;;;1.33;1.10;;;;;;;;;;5037058;28;20408;-56
2022/10/24 03:26:02;;;;;;;2.30;1.20;;;;;;;;;;5037587;28;20041;-55
2022/10/24 03:28:28;;;;;;;1.48;1.05;;;;;;;;;;5037420;28;20041;-55
2022/10/24 03:30:55;;;;;;;2.80;1.45;;;;;;;;;;5037328;28;20399;-56
2022/10/24 03:33:21;;;;;;;2.67;1.27;;;;;;;;;;5037173;28;20041;-56
2022/10/24 03:35:51;;;;;;;2.28;1.25;;;;;;;;;;5038099;28;20049;-55
2022/10/24 03:38:17;;;;;;;4.35;1.50;;;;;;;;;;5040742;28;20369;-56
2022/10/24 03:40:43;;;;;;;2.90;1.20;;;;;;;;;;5039323;28;20056;-55
2022/10/24 03:43:09;;;;;;;8.02;1.50;;;;;;;;;;5038235;28;20142;-56
2022/10/24 03:45:36;;;;;;;3.67;1.60;;;;;;;;;;5041246;28;20051;-56
2022/10/24 03:48:02;;;;;;;5.15;1.50;;;;;;;;;;5035334;28;20380;-56
2022/10/24 03:50:28;;;;;;;2.65;1.40;;;;;;;;;;5034811;28;20100;-56
2022/10/24 03:52:54;;;;;;;2.60;1.23;;;;;;;;;;5038983;28;20131;-56
2022/10/24 03:55:20;;;;;;;3.15;1.30;;;;;;;;;;5037666;28;20051;-56
2022/10/24 03:57:46;;;;;;;2.72;1.35;;;;;;;;;;5037575;28;20052;-56
2022/10/24 04:00:13;;;;;;;8.18;1.27;;;;;;;;;;5037994;28;20037;-56
2022/10/24 04:02:39;;;;;;;5.47;1.45;;;;;;;;;;5040129;28;20051;-56
2022/10/24 04:05:05;;;;;;;2.80;1.38;;;;;;;;;;5038086;28;20155;-57
2022/10/24 04:07:32;;;;;;;2.38;1.40;;;;;;;;;;5035977;28;20057;-56
2022/10/24 04:09:58;;;;;;;2.42;1.73;;;;;;;;;;5036083;28;20041;-57
2022/10/24 04:12:24;;;;;;;3.28;1.48;;;;;;;;;;5036579;28;20038;-57
2022/10/24 04:14:50;;;;;;;1.80;1.17;;;;;;;;;;5034404;28;20041;-57
2022/10/24 04:17:16;;;;;;;5.72;1.80;;;;;;;;;;5037892;28;20280;-56
2022/10/24 04:19:42;;;;;;;3.55;1.55;;;;;;;;;;5035853;28;20038;-56
2022/10/24 04:22:08;;;;;;;1.92;1.63;;;;;;;;;;5036394;28;20060;-57
2022/10/24 04:24:36;;;;;;;4.60;1.52;;;;;;;;;;5038506;28;20037;-56
2022/10/24 04:27:03;;;;;;;1.80;1.23;;;;;;;;;;5035614;28;20056;-56
2022/10/24 04:29:29;;;;;;;4.75;1.85;;;;;;;;;;5038742;28;20047;-56
2022/10/24 04:31:55;;;;;;;1.42;1.27;;;;;;;;;;5035019;28;20041;-56
2022/10/24 04:34:20;;;;;;;4.15;1.80;;;;;;;;;;5037538;28;20319;-56
2022/10/24 04:36:46;;;;;;;2.80;1.55;;;;;;;;;;5038795;28;20119;-57
2022/10/24 04:39:12;;;;;;;4.97;1.92;;;;;;;;;;5038656;28;20055;-55
2022/10/24 04:41:38;;;;;;;4.20;1.30;;;;;;;;;;5040622;28;20033;-56
2022/10/24 04:44:04;;;;;;;1.90;1.27;;;;;;;;;;5038677;28;20048;-57
2022/10/24 04:46:30;;;;;;;2.63;1.48;;;;;;;;;;5036687;28;20037;-56
2022/10/24 04:48:56;;;;;;;5.13;1.58;;;;;;;;;;5039148;28;20047;-56
2022/10/24 04:51:22;;;;;;;4.13;1.63;;;;;;;;;;5034654;28;20037;-56
2022/10/24 04:53:49;;;;;;;2.35;1.40;;;;;;;;;;5035383;28;20048;-56
2022/10/24 04:56:15;;;;;;;4.03;1.70;;;;;;;;;;5035228;28;20045;-56
2022/10/24 04:58:41;;;;;;;2.63;1.65;;;;;;;;;;5038782;28;20040;-57
2022/10/24 05:01:07;;;;;;;3.20;1.38;;;;;;;;;;5037067;28;20045;-56
2022/10/24 05:03:33;;;;;;;2.08;1.52;;;;;;;;;;5038170;28;20072;-56
2022/10/24 05:05:59;;;;;;;1.88;1.17;;;;;;;;;;5037345;28;20052;-56
2022/10/24 05:08:25;;;;;;;2.85;1.40;;;;;;;;;;5037559;28;20044;-56
2022/10/24 05:10:51;;;;;;;6.50;1.63;;;;;;;;;;5035136;28;20064;-56
2022/10/24 05:13:17;;;;;;;1.92;1.23;;;;;;;;;;5036272;28;20033;-57
2022/10/24 05:15:43;;;;;;;7.35;1.60;;;;;;;;;;5040421;28;20583;-56
2022/10/24 05:18:09;;;;;;;3.20;1.45;;;;;;;;;;5035672;28;20034;-56
2022/10/24 05:20:35;;;;;;;3.58;1.30;;;;;;;;;;5039560;28;20044;-56
2022/10/24 05:23:01;;;;;;;1.98;1.40;;;;;;;;;;5042477;28;20103;-56
2022/10/24 05:25:27;;;;;;;4.07;1.13;;;;;;;;;;5039421;28;20041;-57
2022/10/24 05:27:53;;;;;;;5.10;1.77;;;;;;;;;;5036923;28;20045;-56
2022/10/24 05:30:19;;;;;;;6.30;1.40;;;;;;;;;;5036044;28;20033;-56
2022/10/24 05:32:45;;;;;;;4.22;1.63;;;;;;;;;;5039156;28;20054;-56
2022/10/24 05:35:11;;;;;;;3.28;1.63;;;;;;;;;;5037977;28;20045;-57
2022/10/24 05:37:37;;;;;;;3.35;1.65;;;;;;;;;;5040602;28;20045;-56
2022/10/24 05:40:04;;;;;;;4.25;1.40;;;;;;;;;;5039007;28;20506;-57
2022/10/24 05:42:30;;;;;;;3.15;1.40;;;;;;;;;;5034156;28;20041;-57
2022/10/24 05:44:56;;;;;;;5.05;1.45;;;;;;;;;;5038941;28;20040;-56
2022/10/24 05:47:22;;;;;;;2.33;1.27;;;;;;;;;;5038728;28;20076;-56
2022/10/24 05:49:48;;;;;;;4.22;1.27;;;;;;;;;;5036687;28;20445;-56
2022/10/24 05:52:14;;;;;;;3.83;1.58;;;;;;;;;;5037183;28;20049;-56
2022/10/24 05:54:40;;;;;;;3.42;1.30;;;;;;;;;;5034658;28;20073;-57
2022/10/24 05:57:06;;;;;;;2.53;1.08;;;;;;;;;;5035403;28;20053;-57
2022/10/24 05:59:32;;;;;;;2.88;1.77;;;;;;;;;;5035286;28;20078;-57
2022/10/24 06:01:58;;;;;;;6.60;1.38;;;;;;;;;;5036709;28;20065;-56
2022/10/24 06:04:24;;;;;;;2.00;1.15;;;;;;;;;;5038100;28;20392;-56
2022/10/24 06:06:50;;;;;;;2.58;1.35;;;;;;;;;;5034925;28;20053;-56
2022/10/24 06:09:16;;;;;;;2.42;1.00;;;;;;;;;;5035965;28;20041;-56
2022/10/24 06:11:43;;;;;;;2.13;1.27;;;;;;;;;;5038058;28;20037;-56
2022/10/24 06:14:09;;;;;;;4.20;1.45;;;;;;;;;;5036922;28;20511;-56
2022/10/24 06:16:35;;;;;;;2.30;0.80;;;;;;;;;;5031734;28;20048;-56
2022/10/24 06:19:01;;;;;;;2.88;1.15;;;;;;;;;;5033798;28;20048;-56
2022/10/24 06:21:27;;;;;;;4.63;1.52;;;;;;;;;;5035674;28;20179;-56
2022/10/24 06:23:53;;;;;;;3.85;1.35;;;;;;;;;;5036680;28;20119;-57
2022/10/24 06:26:19;;;;;;;6.20;1.00;;;;;;;;;;5039051;28;20140;-56
2022/10/24 06:28:45;;;;;;;2.75;1.17;;;;;;;;;;5034891;28;20454;-56
2022/10/24 06:31:12;;;;;;;4.40;1.27;;;;;;;;;;5037820;28;20045;-56
2022/10/24 06:33:38;;;;;;;2.45;1.33;;;;;;;;;;5040742;28;20037;-56
2022/10/24 06:36:08;;;;;;;3.13;1.30;;;;;;;;;;5036714;28;20052;-57
2022/10/24 06:38:34;;;;;;;3.45;1.23;;;;;;;;;;5038773;28;20048;-56
2022/10/24 06:41:04;;;;;;;3.85;1.08;;;;;;;;;;5037547;28;20057;-56
2022/10/24 06:43:30;;;;;;;4.00;1.35;;;;;;;;;;5038987;28;20072;-56
2022/10/24 06:45:56;;;;;;;2.70;0.95;;;;;;;;;;5034494;28;20087;-57
2022/10/24 06:48:22;;;;;;;3.13;1.35;;;;;;;;;;5037084;28;20519;-56
2022/10/24 06:50:48;;;;;;;3.50;1.00;;;;;;;;;;5036910;28;20045;-56
2022/10/24 06:53:14;;;;;;;3.30;1.10;;;;;;;;;;5033441;28;20124;-56
2022/10/24 06:55:40;;;;;;;7.00;1.23;;;;;;;;;;5036673;28;20056;-56
2022/10/24 06:58:06;;;;;;;2.72;1.10;;;;;;;;;;5038795;28;20051;-56
2022/10/24 07:00:33;;;;;;;3.60;1.45;;;;;;;;;;5035399;28;20052;-57
2022/10/24 07:03:00;;;;;;;2.65;1.23;;;;;;;;;;5036738;28;20527;-57
2022/10/24 07:05:26;;;;;;;4.57;1.15;;;;;;;;;;5036539;28;20048;-58
2022/10/24 07:07:52;;;;;;;4.88;1.38;;;;;;;;;;5034678;28;20488;-57
2022/10/24 07:10:18;;;;;;;5.10;1.45;;;;;;;;;;5035961;28;20047;-57
2022/10/24 07:12:44;;;;;;;6.47;1.20;;;;;;;;;;5036759;28;20448;-58
2022/10/24 07:15:10;;;;;;;3.80;1.05;;;;;;;;;;5037061;28;20049;-58
2022/10/24 07:17:40;;;;;;;1.90;0.60;;;;;;;;;;5037019;28;20040;-57
2022/10/24 07:20:07;;;;;;;2.95;1.15;;;;;;;;;;5036457;28;20546;-58
2022/10/24 07:22:33;;;;;;;2.20;0.80;;;;;;;;;;5034339;28;20057;-58
2022/10/24 07:24:59;;;;;;;3.17;0.90;;;;;;;;;;5037591;28;20045;-55
2022/10/24 07:27:25;;;;;;;4.20;1.08;;;;;;;;;;5036304;28;20124;-56
2022/10/24 07:29:51;;;;;;;2.10;0.88;;;;;;;;;;5038250;28;20043;-56
2022/10/24 07:32:17;;;;;;;4.10;0.90;;;;;;;;;;5036181;28;20045;-56
2022/10/24 07:34:43;;;;;;;1.88;1.00;;;;;;;;;;5032651;28;20094;-56
2022/10/24 07:37:09;;;;;;;7.22;1.67;;;;;;;;;;5035972;28;20404;-56
2022/10/24 07:39:36;;;;;;;4.93;1.35;;;;;;;;;;5039208;28;20184;-56
2022/10/24 07:42:02;;;;;;;4.53;1.05;;;;;;;;;;5033100;28;20049;-56
2022/10/24 07:44:29;;;;;;;2.90;1.00;;;;;;;;;;5034572;28;20041;-56
2022/10/24 07:46:55;;;;;;;1.25;0.75;;;;;;;;;;5036376;28;20056;-56
2022/10/24 07:49:21;;;;;;;9.75;1.55;;;;;;;;;;5032917;28;20436;-56
2022/10/24 07:51:47;;;;;;;4.18;1.17;;;;;;;;;;5034068;28;20090;-56
2022/10/24 07:54:13;;;;;;;5.32;1.25;;;;;;;;;;5038921;28;20072;-55
2022/10/24 07:56:39;;;;;;;2.97;1.23;;;;;;;;;;5036204;28;20049;-56
2022/10/24 07:59:04;;;;;;;3.63;1.45;;;;;;;;;;5024436;28;20088;-56
2022/10/24 08:01:31;;;;;;;4.22;1.33;;;;;;;;;;5031299;28;20080;-58
2022/10/24 08:03:57;;;;;;;6.38;1.35;;;;;;;;;;5034748;28;20044;-58
2022/10/24 08:06:24;;;;;;;3.28;1.35;;;;;;;;;;5047860;28;20314;-53
2022/10/24 08:08:50;;;;;;;4.93;1.45;;;;;;;;;;5048043;28;20044;-55
2022/10/24 08:11:18;;;;;;;4.07;1.58;;;;;;;;;;5035227;28;20081;-55
2022/10/24 08:13:44;;;;;;;7.97;1.67;;;;;;;;;;5028821;28;20491;-55
2022/10/24 08:16:12;;;;;;;4.07;1.30;;;;;;;;;;5030105;28;20100;-55
2022/10/24 08:18:38;;;;;;;4.45;1.27;;;;;;;;;;5049237;28;20461;-55
2022/10/24 08:21:05;;;;;;;6.00;1.65;;;;;;;;;;5048872;28;20045;-56
2022/10/24 08:23:32;;;;;;;2.80;1.40;;;;;;;;;;5047844;28;20048;-55
2022/10/24 08:25:58;;;;;;;5.82;1.38;;;;;;;;;;5043518;28;20421;-55
2022/10/24 08:28:25;;;;;;;3.53;1.13;;;;;;;;;;5045511;28;20629;-55
2022/10/24 08:30:57;;;;;;;5.80;1.98;;;;;;;;;;5037523;28;20037;-55
2022/10/24 08:33:24;;;;;;;5.78;1.55;;;;;;;;;;5042118;28;20463;-55
2022/10/24 08:35:50;;;;;;;5.47;1.00;;;;;;;;;;5041192;28;20052;-56
2022/10/24 08:38:16;;;;;;;4.35;1.10;;;;;;;;;;5036828;28;20103;-55
2022/10/24 08:40:42;;;;;;;3.00;1.25;;;;;;;;;;5033598;28;20050;-55
2022/10/24 08:43:09;;;;;;;3.95;1.40;;;;;;;;;;5042513;28;20064;-56
2022/10/24 08:45:42;;;;;;;9.57;2.03;;;;;;;;;;5045043;28;20040;-55
2022/10/24 08:48:12;;;;;;;5.10;1.40;;;;;;;;;;5042103;28;20045;-56
2022/10/24 08:50:41;;;;;;;3.72;1.27;;;;;;;;;;5039703;28;20065;-55
2022/10/24 08:53:24;;;;;;;5.28;1.10;;;;;;;;;;5039338;28;20068;-56
2022/10/24 08:55:54;;;;;;;4.07;1.50;;;;;;;;;;5043535;28;20127;-57
2022/10/24 08:58:25;;;;;;;3.83;1.42;;;;;;;;;;5038087;28;20102;-56
2022/10/24 09:00:53;;;;;;;3.85;0.85;;;;;;;;;;5040784;28;20078;-56
2022/10/24 09:03:25;;;;;;;5.90;1.90;;;;;;;;;;5045582;28;20049;-56
2022/10/24 09:05:53;;;;;;;2.92;1.23;;;;;;;;;;5044471;28;20053;-56
2022/10/24 09:08:40;;;;;;;6.22;1.65;;;;;;;;;;5046147;28;20069;-54
2022/10/24 09:11:07;;;;;;;6.90;1.60;;;;;;;;;;5030085;28;20053;-55
2022/10/24 09:13:35;;;;;;;5.90;1.77;;;;;;;;;;5035399;28;20421;-56
2022/10/24 09:16:01;;;;;;;5.82;1.45;;;;;;;;;;5044438;28;20102;-56
2022/10/24 09:18:33;;;;;;;6.50;1.50;;;;;;;;;;5042085;28;20105;-57
2022/10/24 09:21:00;;;;;;;3.90;1.35;;;;;;;;;;5045059;28;20484;-56
2022/10/24 09:23:26;;;;;;;5.93;1.27;;;;;;;;;;5039478;28;20048;-56
2022/10/24 09:25:53;;;;;;;4.93;1.27;;;;;;;;;;5033355;28;20037;-57
2022/10/24 09:28:20;;;;;;;6.55;1.80;;;;;;;;;;5036959;28;20045;-57
2022/10/24 09:30:46;;;;;;;5.30;1.20;;;;;;;;;;5041068;28;20409;-57
2022/10/24 09:33:17;;;;;;;8.98;1.33;;;;;;;;;;5038634;28;20103;-57
2022/10/24 09:35:43;;;;;;;3.42;1.27;;;;;;;;;;5041234;28;20045;-57
2022/10/24 09:38:23;;;;;;;5.68;1.40;;;;;;;;;;5032230;28;20141;-57
2022/10/24 09:40:53;;;;;;;6.35;1.30;;;;;;;;;;5041462;28;20255;-56
2022/10/24 09:43:32;;;;;;;3.55;1.00;;;;;;;;;;5039131;28;20053;-56
2022/10/24 09:46:09;;;;;;;8.63;1.77;;;;;;;;;;5043126;28;20334;-56
2022/10/24 09:48:41;;;;;;;3.30;1.10;;;;;;;;;;5039733;28;20453;-57
2022/10/24 09:51:07;;;;;;;9.05;2.20;;;;;;;;;;5043720;28;20110;-57
2022/10/24 09:53:35;;;;;;;4.38;1.48;;;;;;;;;;5041995;28;20044;-57
2022/10/24 09:56:07;;;;;;;3.15;1.05;;;;;;;;;;5040432;28;20483;-57
2022/10/24 09:58:34;;;;;;;4.15;1.50;;;;;;;;;;5043666;28;20037;-57
2022/10/24 10:01:17;;;;;;;4.50;1.30;;;;;;;;;;5043615;28;20052;-57
2022/10/24 10:03:59;;;;;;;3.22;0.80;;;;;;;;;;5042409;28;20040;-57
2022/10/24 10:06:25;;;;;;;5.28;1.20;;;;;;;;;;5041570;28;20127;-57
2022/10/24 10:08:53;;;;;;;2.83;1.02;;;;;;;;;;5038028;28;20048;-57
2022/10/24 10:11:29;;;;;;;3.20;0.93;;;;;;;;;;5043905;28;20047;-57
2022/10/24 10:13:55;;;;;;;4.28;1.50;;;;;;;;;;5043735;28;20412;-59
2022/10/24 10:16:27;;;;;;;6.30;1.85;;;;;;;;;;5040280;28;20044;-57
2022/10/24 10:19:02;;;;;;;8.00;1.30;;;;;;;;;;5039084;28;20514;-55
2022/10/24 10:21:48;;;;;;;4.63;1.30;;;;;;;;;;5040595;28;20036;-58
2022/10/24 10:24:23;;;;;;;3.55;1.00;;;;;;;;;;5033589;28;20055;-58
2022/10/24 10:26:49;;;;;;;6.95;1.42;;;;;;;;;;5029049;28;20033;-58
2022/10/24 10:29:18;;;;;;;4.53;1.23;;;;;;;;;;5041102;28;20045;-58
2022/10/24 10:32:06;;;;;;;8.63;1.67;;;;;;;;;;5034749;28;20377;-58
2022/10/24 10:34:39;;;;;;;4.68;1.33;;;;;;;;;;5044842;28;20520;-58
2022/10/24 10:37:05;;;;;;;5.78;1.25;;;;;;;;;;5036472;28;20046;-57
2022/10/24 10:39:34;;;;;;;3.70;1.00;;;;;;;;;;5045106;28;20087;-57
2022/10/24 10:42:03;;;;;;;4.45;1.02;;;;;;;;;;5040853;28;20065;-57
2022/10/24 10:44:45;;;;;;;4.43;1.40;;;;;;;;;;5041072;28;20153;-57
2022/10/24 10:47:33;;;;;;;7.63;2.00;;;;;;;;;;5039554;28;20095;-58
2022/10/24 10:49:59;;;;;;;2.72;1.10;;;;;;;;;;5041789;28;20095;-58
2022/10/24 10:52:45;;;;;;;4.13;1.15;;;;;;;;;;5037146;28;20163;-58
2022/10/24 10:55:14;;;;;;;5.95;1.27;;;;;;;;;;5043014;28;20045;-57
2022/10/24 10:57:43;;;;;;;2.78;0.63;;;;;;;;;;5039809;28;20045;-57
2022/10/24 11:00:09;;;;;;;2.83;1.00;;;;;;;;;;5040588;28;20504;-58
2022/10/24 11:02:44;;;;;;;4.57;1.05;;;;;;;;;;5039287;28;20199;-57
2022/10/24 11:05:21;;;;;;;4.70;1.40;;;;;;;;;;5034285;28;20041;-57
2022/10/24 11:07:56;;;;;;;4.50;1.63;;;;;;;;;;5044950;28;20424;-58
2022/10/24 11:10:24;;;;;;;8.15;1.70;;;;;;;;;;5038363;28;20061;-57
2022/10/24 11:12:50;;;;;;;8.57;1.63;;;;;;;;;;5038042;28;20120;-57
2022/10/24 11:15:19;;;;;;;7.22;1.58;;;;;;;;;;5036495;28;20126;-58
2022/10/24 11:17:52;;;;;;;6.15;1.42;;;;;;;;;;5041821;28;20041;-58
2022/10/24 11:20:24;;;;;;;6.45;1.63;;;;;;;;;;5044205;28;20041;-57
2022/10/24 11:22:52;;;;;;;7.13;1.75;;;;;;;;;;5045524;28;20123;-59
2022/10/24 11:25:37;;;;;;;5.13;1.45;;;;;;;;;;5045588;28;20409;-58
2022/10/24 11:28:07;;;;;;;3.38;1.08;;;;;;;;;;5044576;28;20574;-58
2022/10/24 11:30:43;;;;;;;9.68;1.60;;;;;;;;;;5043900;28;20049;-58
2022/10/24 11:33:13;;;;;;;5.43;1.15;;;;;;;;;;5043972;28;20537;-59
2022/10/24 11:35:44;;;;;;;5.82;1.45;;;;;;;;;;5044242;28;20090;-57
2022/10/24 11:38:17;;;;;;;4.60;1.63;;;;;;;;;;5040235;28;20489;-58
2022/10/24 11:40:45;;;;;;;9.68;1.67;;;;;;;;;;5045269;28;20534;-58
2022/10/24 11:43:24;;;;;;;6.13;1.50;;;;;;;;;;5042974;28;20045;-58
2022/10/24 11:45:58;;;;;;;5.35;1.33;;;;;;;;;;5049173;28;20041;-58
2022/10/24 11:48:36;;;;;;;7.00;1.48;;;;;;;;;;5046309;28;20037;-58
2022/10/24 11:51:21;;;;;;;4.05;1.30;;;;;;;;;;5047846;28;20292;-58
2022/10/24 11:53:50;;;;;;;4.75;1.45;;;;;;;;;;5047810;28;20049;-59
2022/10/24 11:56:20;;;;;;;6.15;2.15;;;;;;;;;;5047187;28;20499;-58
2022/10/24 11:58:51;;;;;;;8.00;1.50;;;;;;;;;;5046700;28;20057;-58
2022/10/24 12:01:20;;;;;;;8.63;1.73;;;;;;;;;;5028232;28;20107;-58
2022/10/24 12:03:56;;;;;;;4.30;1.38;;;;;;;;;;5041677;28;20044;-59
2022/10/24 12:06:35;;;;;;;4.07;1.25;;;;;;;;;;5047966;28;20053;-58
2022/10/24 12:09:04;;;;;;;5.70;1.25;;;;;;;;;;5031769;28;20053;-58
2022/10/24 12:11:48;;;;;;;4.93;1.50;;;;;;;;;;5037644;28;20048;-54
2022/10/24 12:14:17;;;;;;;6.22;1.40;;;;;;;;;;5034293;28;20264;-58
2022/10/24 12:17:02;;;;;;;4.78;1.42;;;;;;;;;;5046959;28;20404;-58
2022/10/24 12:19:28;;;;;;;4.00;1.42;;;;;;;;;;5041723;28;20045;-58
2022/10/24 12:21:57;;;;;;;3.03;1.20;;;;;;;;;;5048266;28;20063;-58
2022/10/24 12:24:31;;;;;;;3.53;1.13;;;;;;;;;;5047767;28;20045;-58
2022/10/24 12:27:19;;;;;;;6.78;1.48;;;;;;;;;;5048253;28;20095;-58
2022/10/24 12:29:59;;;;;;;4.93;1.17;;;;;;;;;;5047542;28;20049;-58
2022/10/24 12:32:33;;;;;;;4.25;1.50;;;;;;;;;;5047750;28;20037;-58
2022/10/24 12:35:00;;;;;;;8.55;1.58;;;;;;;;;;5047975;28;20045;-58
2022/10/24 12:37:32;;;;;;;5.63;1.65;;;;;;;;;;5047075;28;20080;-58
2022/10/24 12:39:58;;;;;;;3.28;1.23;;;;;;;;;;5048274;28;20044;-58
2022/10/24 12:42:24;;;;;;;9.05;2.20;;;;;;;;;;5047190;28;20045;-58
2022/10/24 12:44:51;;;;;;;7.28;1.70;;;;;;;;;;5047005;28;20531;-58
2022/10/24 12:47:37;;;;;;;5.18;1.50;;;;;;;;;;5047016;28;20098;-58
2022/10/24 12:50:21;;;;;;;3.80;1.13;;;;;;;;;;5048055;28;20213;-58
2022/10/24 12:52:47;;;;;;;20.02;2.35;;;;;;;;;;5047674;28;20457;-58
2022/10/24 12:55:32;;;;;;;4.68;1.67;;;;;;;;;;5047497;28;20099;-58
2022/10/24 12:57:58;;;;;;;6.80;1.45;;;;;;;;;;5047200;28;20037;-59
2022/10/24 13:00:26;;;;;;;8.25;1.90;;;;;;;;;;5047632;28;20044;-58
2022/10/24 13:03:04;;;;;;;3.03;1.17;;;;;;;;;;5047711;28;20124;-58
2022/10/24 13:05:38;;;;;;;5.70;1.30;;;;;;;;;;5046501;28;20103;-58
2022/10/24 13:08:04;;;;;;;4.38;1.02;;;;;;;;;;5047918;28;20053;-58
2022/10/24 13:10:33;;;;;;;9.50;1.50;;;;;;;;;;5047294;28;20044;-58
2022/10/24 13:13:19;;;;;;;4.50;1.40;;;;;;;;;;5046838;28;20041;-58
2022/10/24 13:16:03;;;;;;;7.30;1.60;;;;;;;;;;5043418;28;20061;-58
2022/10/24 13:18:50;;;;;;;4.18;1.40;;;;;;;;;;5041755;28;20049;-58
2022/10/24 13:21:20;;;;;;;4.00;1.23;;;;;;;;;;5037617;28;20486;-58
2022/10/24 13:23:47;;;;;;;5.65;1.20;;;;;;;;;;5039062;28;20041;-58
2022/10/24 13:26:31;;;;;;;5.68;1.30;;;;;;;;;;5036390;28;20072;-57
2022/10/24 13:28:57;;;;;;;6.00;1.88;;;;;;;;;;5037994;28;20056;-51
2022/10/24 13:31:23;;;;;;;3.10;1.02;;;;;;;;;;5045673;28;20051;-58
2022/10/24 13:33:49;;;;;;;6.05;1.50;;;;;;;;;;5045217;28;20052;-58
2022/10/24 13:36:21;;;;;;;10.02;1.83;;;;;;;;;;5043810;28;20045;-58
2022/10/24 13:38:50;;;;;;;4.53;1.13;;;;;;;;;;5045917;28;20116;-58
2022/10/24 13:41:23;;;;;;;6.10;1.63;;;;;;;;;;5045851;28;20547;-58
2022/10/24 13:43:50;;;;;;;8.60;1.40;;;;;;;;;;5033751;28;20411;-58
2022/10/24 13:46:24;;;;;;;10.32;1.45;;;;;;;;;;5046651;28;20310;-58
2022/10/24 13:48:52;;;;;;;2.78;0.90;;;;;;;;;;5047432;28;20067;-58
2022/10/24 13:51:23;;;;;;;4.63;1.60;;;;;;;;;;5046145;28;20342;-58
2022/10/24 13:53:52;;;;;;;4.20;1.15;;;;;;;;;;5045370;28;20033;-58
2022/10/24 13:56:18;;;;;;;7.13;1.35;;;;;;;;;;5045760;28;20052;-58
2022/10/24 13:58:45;;;;;;;3.67;1.20;;;;;;;;;;5044444;28;20083;-58
2022/10/24 14:01:17;;;;;;;3.90;1.05;;;;;;;;;;5045532;28;20056;-58
2022/10/24 14:03:43;;;;;;;2.67;1.08;;;;;;;;;;5033786;28;20095;-58
2022/10/24 14:06:09;;;;;;;8.52;1.50;;;;;;;;;;5041211;28;20144;-58
2022/10/24 14:08:37;;;;;;;3.75;1.15;;;;;;;;;;5045588;28;20041;-58
2022/10/24 14:11:07;;;;;;;1.55;0.77;;;;;;;;;;5046139;28;20045;-57
2022/10/24 14:13:35;;;;;;;3.53;0.90;;;;;;;;;;5045861;28;20060;-58
2022/10/24 14:16:02;;;;;;;6.25;1.17;;;;;;;;;;5043766;28;20386;-59
2022/10/24 14:18:29;;;;;;;3.60;0.90;;;;;;;;;;5046460;28;20045;-58
2022/10/24 14:20:57;;;;;;;3.72;0.90;;;;;;;;;;5045053;28;20049;-58
2022/10/24 14:23:28;;;;;;;3.63;0.90;;;;;;;;;;5043742;28;20049;-58
2022/10/24 14:26:05;;;;;;;5.63;1.05;;;;;;;;;;5046036;28;20109;-58
2022/10/24 14:28:37;;;;;;;5.07;1.15;;;;;;;;;;5038259;28;20053;-58
2022/10/24 14:31:05;;;;;;;5.28;0.60;;;;;;;;;;5042380;28;20056;-58
2022/10/24 14:33:31;;;;;;;4.40;1.05;;;;;;;;;;5045758;28;20391;-58
2022/10/24 14:35:59;;;;;;;6.43;1.15;;;;;;;;;;5044583;28;20045;-58
2022/10/24 14:38:26;;;;;;;3.35;1.08;;;;;;;;;;5045784;28;20095;-58
2022/10/24 14:40:52;;;;;;;2.78;1.00;;;;;;;;;;5045595;28;20116;-58
2022/10/24 14:43:21;;;;;;;4.80;1.17;;;;;;;;;;5044711;28;20048;-58
2022/10/24 14:46:05;;;;;;;2.80;0.90;;;;;;;;;;5045543;28;20098;-58
2022/10/24 14:48:32;;;;;;;3.28;1.00;;;;;;;;;;5045498;28;20056;-58
2022/10/24 14:51:02;;;;;;;4.88;1.23;;;;;;;;;;5044674;28;20075;-58
2022/10/24 14:53:28;;;;;;;3.38;1.00;;;;;;;;;;5045342;28;20110;-58
2022/10/24 14:55:56;;;;;;;7.97;1.52;;;;;;;;;;5042048;28;20065;-58